createdAt,value
2019-02-25T00:00:50.804Z,10.50
2019-02-25T00:01:50.750Z,11.80
2019-02-25T00:02:50.721Z,11.10
2019-02-25T00:03:50.621Z,11.10
2019-02-25T00:04:50.565Z,10.40
2019-02-25T00:05:50.531Z,10.80
2019-02-25T00:06:50.477Z,11.30
2019-02-25T00:07:50.432Z,11.70
2019-02-25T00:08:50.350Z,10.60
2019-02-25T00:09:50.302Z,12.40
2019-02-25T00:10:50.247Z,11.60
2019-02-25T00:11:50.201Z,11.90
2019-02-25T00:12:50.173Z,12.10
2019-02-25T00:13:50.078Z,10.30
2019-02-25T00:14:50.010Z,11.10
2019-02-25T00:15:49.974Z,11.70
2019-02-25T00:16:49.909Z,11.00
2019-02-25T00:17:49.855Z,10.40
2019-02-25T00:18:49.786Z,11.70
2019-02-25T00:19:49.744Z,10.90
2019-02-25T00:20:49.681Z,13.10
2019-02-25T00:21:49.621Z,11.50
2019-02-25T00:22:49.641Z,11.60
2019-02-25T00:23:49.507Z,11.40
2019-02-25T00:24:49.453Z,10.90
2019-02-25T00:25:49.398Z,11.70
2019-02-25T00:26:49.354Z,12.20
2019-02-25T00:27:49.297Z,12.60
2019-02-25T00:28:49.261Z,11.00
2019-02-25T00:29:49.194Z,11.30
2019-02-25T00:30:49.123Z,11.20
2019-02-25T00:31:49.067Z,10.80
2019-02-25T00:32:49.031Z,10.80
2019-02-25T00:33:48.981Z,12.20
2019-02-25T00:34:48.917Z,12.50
2019-02-25T00:35:48.840Z,11.30
2019-02-25T00:36:48.797Z,12.00
2019-02-25T00:37:48.749Z,11.90
2019-02-25T00:38:48.719Z,12.60
2019-02-25T00:39:48.620Z,11.80
2019-02-25T00:40:48.575Z,11.60
2019-02-25T00:41:48.536Z,11.80
2019-02-25T00:42:48.461Z,12.10
2019-02-25T00:43:48.432Z,12.30
2019-02-25T00:44:48.340Z,12.20
2019-02-25T00:45:48.286Z,11.40
2019-02-25T00:46:48.267Z,10.60
2019-02-25T00:47:48.194Z,11.40
2019-02-25T00:48:48.156Z,14.00
2019-02-25T00:49:48.080Z,11.60
2019-02-25T00:50:48.021Z,11.90
2019-02-25T00:51:47.982Z,12.30
2019-02-25T00:52:47.943Z,12.00
2019-02-25T00:53:47.888Z,10.30
2019-02-25T00:54:47.821Z,11.60
2019-02-25T00:55:47.748Z,11.30
2019-02-25T00:56:47.687Z,10.50
2019-02-25T00:57:47.650Z,10.50
2019-02-25T00:58:47.613Z,10.50
2019-02-25T00:59:47.521Z,11.40
2019-02-25T01:00:47.461Z,10.10
2019-02-25T01:01:47.430Z,10.00
2019-02-25T01:02:47.360Z,11.30
2019-02-25T01:03:47.309Z,10.70
2019-02-25T01:04:47.243Z,11.60
2019-02-25T01:05:47.167Z,11.10
2019-02-25T01:06:47.125Z,9.80
2019-02-25T01:07:47.058Z,11.40
2019-02-25T01:08:47.023Z,11.20
2019-02-25T01:09:46.952Z,11.10
2019-02-25T01:10:46.901Z,10.70
2019-02-25T01:11:46.849Z,11.70
2019-02-25T01:12:46.828Z,10.50
2019-02-25T01:13:46.765Z,12.10
2019-02-25T01:14:46.671Z,10.00
2019-02-25T01:15:46.628Z,9.60
2019-02-25T01:16:46.580Z,9.60
2019-02-25T01:17:46.514Z,9.90
2019-02-25T01:18:46.485Z,9.80
2019-02-25T01:19:46.398Z,9.30
2019-02-25T01:20:46.349Z,9.20
2019-02-25T01:21:46.299Z,9.30
2019-02-25T01:22:46.228Z,9.80
2019-02-25T01:23:46.208Z,10.40
2019-02-25T01:24:46.126Z,10.20
2019-02-25T01:25:46.064Z,9.50
2019-02-25T01:26:46.034Z,10.40
2019-02-25T01:27:45.966Z,9.80
2019-02-25T01:28:45.946Z,9.30
2019-02-25T01:29:45.850Z,9.00
2019-02-25T01:30:45.806Z,9.80
2019-02-25T01:31:45.736Z,9.00
2019-02-25T01:32:45.724Z,9.50
2019-02-25T01:33:45.653Z,9.90
2019-02-25T01:34:45.565Z,10.00
2019-02-25T01:35:45.501Z,9.10
2019-02-25T01:36:45.486Z,10.10
2019-02-25T01:37:45.387Z,10.70
2019-02-25T01:38:45.372Z,10.90
2019-02-25T01:39:45.282Z,10.30
2019-02-25T01:40:45.226Z,10.90
2019-02-25T01:41:45.167Z,11.70
2019-02-25T01:42:45.107Z,10.40
2019-02-25T01:43:45.075Z,10.50
2019-02-25T01:44:45.019Z,10.20
2019-02-25T01:45:44.977Z,13.00
2019-02-25T01:46:44.905Z,11.60
2019-02-25T01:47:44.831Z,9.90
2019-02-25T01:48:44.824Z,11.00
2019-02-25T01:49:44.743Z,10.70
2019-02-25T01:50:44.693Z,10.10
2019-02-25T01:51:44.648Z,10.80
2019-02-25T01:52:44.590Z,11.30
2019-02-25T01:53:44.538Z,10.60
2019-02-25T01:54:44.447Z,11.20
2019-02-25T01:55:44.400Z,11.90
2019-02-25T01:56:44.331Z,10.40
2019-02-25T01:57:44.275Z,10.40
2019-02-25T01:58:44.258Z,10.80
2019-02-25T01:59:44.205Z,10.20
2019-02-25T02:00:44.116Z,10.90
2019-02-25T02:01:44.052Z,10.20
2019-02-25T02:02:44.002Z,10.60
2019-02-25T02:03:43.989Z,9.60
2019-02-25T02:04:43.923Z,11.50
2019-02-25T02:05:43.846Z,11.20
2019-02-25T02:06:43.766Z,10.90
2019-02-25T02:07:43.724Z,10.80
2019-02-25T02:08:43.676Z,10.90
2019-02-25T02:09:43.661Z,9.60
2019-02-25T02:10:43.588Z,10.50
2019-02-25T02:11:43.541Z,10.30
2019-02-25T02:12:43.451Z,10.20
2019-02-25T02:13:43.375Z,9.50
2019-02-25T02:14:43.365Z,10.20
2019-02-25T02:15:43.269Z,11.70
2019-02-25T02:16:43.222Z,10.80
2019-02-25T02:17:43.168Z,10.70
2019-02-25T02:18:43.125Z,11.20
2019-02-25T02:19:43.065Z,10.00
2019-02-25T02:20:43.001Z,10.50
2019-02-25T02:21:42.946Z,10.60
2019-02-25T02:22:42.908Z,12.50
2019-02-25T02:23:42.828Z,10.70
2019-02-25T02:24:42.797Z,11.10
2019-02-25T02:25:42.709Z,11.40
2019-02-25T02:26:42.673Z,10.90
2019-02-25T02:27:42.589Z,10.70
2019-02-25T02:28:42.554Z,10.20
2019-02-25T02:29:42.523Z,10.30
2019-02-25T02:30:42.433Z,10.60
2019-02-25T02:31:42.371Z,10.90
2019-02-25T02:32:42.305Z,10.50
2019-02-25T02:33:42.259Z,9.80
2019-02-25T02:34:42.219Z,10.10
2019-02-25T02:35:42.147Z,10.00
2019-02-25T02:36:42.104Z,10.90
2019-02-25T02:37:42.061Z,10.40
2019-02-25T02:38:41.979Z,10.70
2019-02-25T02:39:41.961Z,10.30
2019-02-25T02:40:41.884Z,12.10
2019-02-25T02:41:41.821Z,11.20
2019-02-25T02:42:41.752Z,10.70
2019-02-25T02:43:41.712Z,11.00
2019-02-25T02:44:41.671Z,11.40
2019-02-25T02:45:41.611Z,11.50
2019-02-25T02:46:41.523Z,11.00
2019-02-25T02:47:41.469Z,11.90
2019-02-25T02:48:41.422Z,10.70
2019-02-25T02:49:41.405Z,11.00
2019-02-25T02:50:41.304Z,10.80
2019-02-25T02:51:41.250Z,10.80
2019-02-25T02:52:41.213Z,11.20
2019-02-25T02:53:41.163Z,12.10
2019-02-25T02:54:41.128Z,10.80
2019-02-25T02:55:41.035Z,11.30
2019-02-25T02:56:40.967Z,10.90
2019-02-25T02:57:40.920Z,11.20
2019-02-25T02:58:40.852Z,11.00
2019-02-25T02:59:40.822Z,10.80
2019-02-25T03:00:40.769Z,9.90
2019-02-25T03:01:40.687Z,9.90
2019-02-25T03:02:40.652Z,9.60
2019-02-25T03:03:40.562Z,9.90
2019-02-25T03:04:40.535Z,10.40
2019-02-25T03:05:40.475Z,10.50
2019-02-25T03:06:40.395Z,9.70
2019-02-25T03:07:40.344Z,10.80
2019-02-25T03:08:40.282Z,9.60
2019-02-25T03:09:40.269Z,11.20
2019-02-25T03:10:40.168Z,11.10
2019-02-25T03:11:40.121Z,10.50
2019-02-25T03:12:40.058Z,9.80
2019-02-25T03:13:40.012Z,10.40
2019-02-25T03:14:39.984Z,10.30
2019-02-25T03:15:39.925Z,11.30
2019-02-25T03:16:39.849Z,10.40
2019-02-25T03:17:39.777Z,11.30
2019-02-25T03:18:39.735Z,11.90
2019-02-25T03:19:39.710Z,11.50
2019-02-25T03:20:39.611Z,11.90
2019-02-25T03:21:39.563Z,13.20
2019-02-25T03:22:39.505Z,11.60
2019-02-25T03:23:39.505Z,12.00
2019-02-25T03:24:39.442Z,12.40
2019-02-25T03:25:39.330Z,11.40
2019-02-25T03:26:39.268Z,12.70
2019-02-25T03:27:39.239Z,13.40
2019-02-25T03:28:39.156Z,13.80
2019-02-25T03:29:39.119Z,13.10
2019-02-25T03:30:39.047Z,12.60
2019-02-25T03:31:39.018Z,13.70
2019-02-25T03:32:38.936Z,12.10
2019-02-25T03:33:38.882Z,11.00
2019-02-25T03:34:38.846Z,10.00
2019-02-25T03:35:38.758Z,8.30
2019-02-25T03:36:38.699Z,9.10
2019-02-25T03:37:38.644Z,8.10
2019-02-25T03:38:38.594Z,9.10
2019-02-25T03:39:38.580Z,9.40
2019-02-25T03:40:38.478Z,9.10
2019-02-25T03:41:38.457Z,9.20
2019-02-25T03:42:38.375Z,8.90
2019-02-25T03:43:38.303Z,8.90
2019-02-25T03:44:38.258Z,8.00
2019-02-25T03:45:38.220Z,8.10
2019-02-25T03:46:38.154Z,7.80
2019-02-25T03:47:38.071Z,8.80
2019-02-25T03:48:38.034Z,7.90
2019-02-25T03:49:37.966Z,8.50
2019-02-25T03:50:37.968Z,8.90
2019-02-25T03:51:37.876Z,9.00
2019-02-25T03:52:37.797Z,8.00
2019-02-25T03:53:37.762Z,8.50
2019-02-25T03:54:37.684Z,8.10
2019-02-25T03:55:37.651Z,7.60
2019-02-25T03:56:37.574Z,8.60
2019-02-25T03:57:37.524Z,8.40
2019-02-25T03:58:37.468Z,8.00
2019-02-25T03:59:37.417Z,9.20
2019-02-25T04:00:37.383Z,8.80
2019-02-25T04:01:37.289Z,8.70
2019-02-25T04:02:37.239Z,9.00
2019-02-25T04:03:37.185Z,8.50
2019-02-25T04:04:37.121Z,7.80
2019-02-25T04:05:37.097Z,8.40
2019-02-25T04:06:37.002Z,8.60
2019-02-25T04:07:36.979Z,8.10
2019-02-25T04:08:36.911Z,7.90
2019-02-25T04:09:36.829Z,8.40
2019-02-25T04:10:36.849Z,8.50
2019-02-25T04:11:36.725Z,8.00
2019-02-25T04:12:36.683Z,8.20
2019-02-25T04:13:36.627Z,6.60
2019-02-25T04:14:36.575Z,7.70
2019-02-25T04:15:36.530Z,7.80
2019-02-25T04:16:36.437Z,8.20
2019-02-25T04:17:36.398Z,7.20
2019-02-25T04:18:36.335Z,6.90
2019-02-25T04:19:36.278Z,7.50
2019-02-25T04:20:36.257Z,8.50
2019-02-25T04:21:36.161Z,8.00
2019-02-25T04:22:36.092Z,7.40
2019-02-25T04:23:36.063Z,6.90
2019-02-25T04:24:35.988Z,7.40
2019-02-25T04:25:35.967Z,7.60
2019-02-25T04:26:35.871Z,7.60
2019-02-25T04:27:35.822Z,6.50
2019-02-25T04:28:35.780Z,7.20
2019-02-25T04:29:35.706Z,7.20
2019-02-25T04:30:35.678Z,7.60
2019-02-25T04:31:35.594Z,7.30
2019-02-25T04:32:35.546Z,7.40
2019-02-25T04:33:35.484Z,6.90
2019-02-25T04:34:35.414Z,7.70
2019-02-25T04:35:35.392Z,7.40
2019-02-25T04:36:35.297Z,6.60
2019-02-25T04:37:35.253Z,8.40
2019-02-25T04:38:35.194Z,7.10
2019-02-25T04:39:35.157Z,7.20
2019-02-25T04:40:35.100Z,7.70
2019-02-25T04:41:35.026Z,6.60
2019-02-25T04:42:34.959Z,6.80
2019-02-25T04:43:34.916Z,7.70
2019-02-25T04:44:34.846Z,7.10
2019-02-25T04:45:34.835Z,8.20
2019-02-25T04:46:34.739Z,7.00
2019-02-25T04:47:34.705Z,7.80
2019-02-25T04:48:34.630Z,6.90
2019-02-25T04:49:34.585Z,6.70
2019-02-25T04:50:34.567Z,8.10
2019-02-25T04:51:34.457Z,7.70
2019-02-25T04:52:34.402Z,7.70
2019-02-25T04:53:34.354Z,7.30
2019-02-25T04:54:34.282Z,7.80
2019-02-25T04:55:34.255Z,6.70
2019-02-25T04:56:34.173Z,6.70
2019-02-25T04:57:34.117Z,6.00
2019-02-25T04:58:34.059Z,5.20
2019-02-25T04:59:34.003Z,6.10
2019-02-25T05:00:33.979Z,6.00
2019-02-25T05:01:33.909Z,7.60
2019-02-25T05:02:33.823Z,7.10
2019-02-25T05:03:33.807Z,5.00
2019-02-25T05:04:33.721Z,5.90
2019-02-25T05:05:33.705Z,6.20
2019-02-25T05:06:33.620Z,7.40
2019-02-25T05:07:33.538Z,6.50
2019-02-25T05:08:33.495Z,6.20
2019-02-25T05:09:33.443Z,6.40
2019-02-25T05:10:33.388Z,6.50
2019-02-25T05:11:33.322Z,6.10
2019-02-25T05:12:33.269Z,7.60
2019-02-25T05:13:33.204Z,7.10
2019-02-25T05:14:33.162Z,7.20
2019-02-25T05:15:33.123Z,6.70
2019-02-25T05:16:33.082Z,5.50
2019-02-25T05:17:32.970Z,5.70
2019-02-25T05:18:32.915Z,5.00
2019-02-25T05:19:32.872Z,5.70
2019-02-25T05:20:32.811Z,7.40
2019-02-25T05:21:32.802Z,6.00
2019-02-25T05:22:32.729Z,5.70
2019-02-25T05:23:32.634Z,6.70
2019-02-25T05:24:32.572Z,6.40
2019-02-25T05:25:32.547Z,5.60
2019-02-25T05:26:32.523Z,6.00
2019-02-25T05:27:32.399Z,6.50
2019-02-25T05:28:32.351Z,6.80
2019-02-25T05:29:32.287Z,6.70
2019-02-25T05:30:32.259Z,6.40
2019-02-25T05:31:32.252Z,6.70
2019-02-25T05:32:32.112Z,6.80
2019-02-25T05:33:32.084Z,6.60
2019-02-25T05:34:31.998Z,7.00
2019-02-25T05:35:31.977Z,5.70
2019-02-25T05:36:31.925Z,5.20
2019-02-25T05:37:31.860Z,6.50
2019-02-25T05:38:31.789Z,6.00
2019-02-25T05:39:31.726Z,6.70
2019-02-25T05:40:31.670Z,5.50
2019-02-25T05:41:31.631Z,6.00
2019-02-25T05:42:31.569Z,5.00
2019-02-25T05:43:31.496Z,6.10
2019-02-25T05:44:31.441Z,6.40
2019-02-25T05:45:31.404Z,5.70
2019-02-25T05:46:31.356Z,4.90
2019-02-25T05:47:31.259Z,6.10
2019-02-25T05:48:31.211Z,5.90
2019-02-25T05:49:31.169Z,5.50
2019-02-25T05:50:31.105Z,7.10
2019-02-25T05:51:31.062Z,6.10
2019-02-25T05:52:30.969Z,7.80
2019-02-25T05:53:30.927Z,6.00
2019-02-25T05:54:30.903Z,5.80
2019-02-25T05:55:30.810Z,5.50
2019-02-25T05:56:30.792Z,5.20
2019-02-25T05:57:30.708Z,5.80
2019-02-25T05:58:30.645Z,5.20
2019-02-25T05:59:30.595Z,5.90
2019-02-25T06:00:30.536Z,6.80
2019-02-25T06:01:30.541Z,5.50
2019-02-25T06:02:30.426Z,6.20
2019-02-25T06:03:30.360Z,5.30
2019-02-25T06:04:30.289Z,5.50
2019-02-25T06:05:30.241Z,4.90
2019-02-25T06:06:30.200Z,5.90
2019-02-25T06:07:30.129Z,5.50
2019-02-25T06:08:30.060Z,6.00
2019-02-25T06:09:30.004Z,5.60
2019-02-25T06:10:29.956Z,6.90
2019-02-25T06:11:29.950Z,6.50
2019-02-25T06:12:29.848Z,4.90
2019-02-25T06:13:29.799Z,5.00
2019-02-25T06:14:29.713Z,4.70
2019-02-25T06:15:29.676Z,5.60
2019-02-25T06:16:29.650Z,6.50
2019-02-25T06:17:29.544Z,6.10
2019-02-25T06:18:29.494Z,6.90
2019-02-25T06:19:29.450Z,8.30
2019-02-25T06:20:29.390Z,9.10
2019-02-25T06:21:29.356Z,7.80
2019-02-25T06:22:29.271Z,7.80
2019-02-25T06:23:29.212Z,6.10
2019-02-25T06:24:29.150Z,7.10
2019-02-25T06:25:29.105Z,6.90
2019-02-25T06:26:29.071Z,5.60
2019-02-25T06:27:30.975Z,6.80
2019-02-25T06:28:28.940Z,7.10
2019-02-25T06:29:28.896Z,6.50
2019-02-25T06:30:28.797Z,8.00
2019-02-25T06:31:28.779Z,5.60
2019-02-25T06:32:28.717Z,5.20
2019-02-25T06:33:28.648Z,5.80
2019-02-25T06:34:28.572Z,6.20
2019-02-25T06:35:28.529Z,7.80
2019-02-25T06:36:28.503Z,7.50
2019-02-25T06:37:28.411Z,8.10
2019-02-25T06:38:28.357Z,5.70
2019-02-25T06:39:28.297Z,6.90
2019-02-25T06:40:28.234Z,6.60
2019-02-25T06:41:28.207Z,6.00
2019-02-25T06:42:28.114Z,6.60
2019-02-25T06:43:28.056Z,6.50
2019-02-25T06:44:28.042Z,6.50
2019-02-25T06:45:27.972Z,5.90
2019-02-25T06:46:27.922Z,5.30
2019-02-25T06:47:27.886Z,8.80
2019-02-25T06:48:27.787Z,6.20
2019-02-25T06:49:27.736Z,6.50
2019-02-25T06:50:27.679Z,7.60
2019-02-25T06:51:27.654Z,6.00
2019-02-25T06:52:27.560Z,9.20
2019-02-25T06:53:27.513Z,7.50
2019-02-25T06:54:27.441Z,7.40
2019-02-25T06:55:27.384Z,7.30
2019-02-25T06:56:27.377Z,8.90
2019-02-25T06:57:27.275Z,7.90
2019-02-25T06:58:27.206Z,6.70
2019-02-25T06:59:27.145Z,6.90
2019-02-25T07:00:27.092Z,7.00
2019-02-25T07:01:27.050Z,8.10
2019-02-25T07:02:27.011Z,7.40
2019-02-25T07:03:26.939Z,6.10
2019-02-25T07:04:26.876Z,8.70
2019-02-25T07:05:26.875Z,7.00
2019-02-25T07:06:26.758Z,7.10
2019-02-25T07:07:26.738Z,6.40
2019-02-25T07:08:26.627Z,7.70
2019-02-25T07:09:26.607Z,7.40
2019-02-25T07:10:26.550Z,6.60
2019-02-25T07:11:26.463Z,8.40
2019-02-25T07:12:26.462Z,10.70
2019-02-25T07:13:26.374Z,7.40
2019-02-25T07:14:26.324Z,8.50
2019-02-25T07:15:26.239Z,8.60
2019-02-25T07:16:26.189Z,9.60
2019-02-25T07:17:26.160Z,9.60
2019-02-25T07:18:26.100Z,8.30
2019-02-25T07:19:26.025Z,9.00
2019-02-25T07:20:25.948Z,10.40
2019-02-25T07:21:25.889Z,9.40
2019-02-25T07:22:25.848Z,12.70
2019-02-25T07:23:25.780Z,12.40
2019-02-25T07:24:25.720Z,10.20
2019-02-25T07:25:25.658Z,14.00
2019-02-25T07:26:27.536Z,12.80
2019-02-25T07:27:25.570Z,11.50
2019-02-25T07:28:25.509Z,13.20
2019-02-25T07:29:25.433Z,11.60
2019-02-25T07:30:25.382Z,13.70
2019-02-25T07:31:25.321Z,11.00
2019-02-25T07:32:25.298Z,12.60
2019-02-25T07:33:25.288Z,11.50
2019-02-25T07:34:25.147Z,11.40
2019-02-25T07:35:25.887Z,10.80
2019-02-25T07:36:25.041Z,13.70
2019-02-25T07:37:25.005Z,12.30
2019-02-25T07:38:24.929Z,9.80
2019-02-25T07:39:24.891Z,11.00
2019-02-25T07:40:24.837Z,11.40
2019-02-25T07:41:24.774Z,10.60
2019-02-25T07:42:24.727Z,11.20
2019-02-25T07:43:24.648Z,9.60
2019-02-25T07:44:24.589Z,9.50
2019-02-25T07:45:24.535Z,8.50
2019-02-25T07:46:24.471Z,9.60
2019-02-25T07:47:24.443Z,9.50
2019-02-25T07:48:24.461Z,10.00
2019-02-25T07:49:24.331Z,9.70
2019-02-25T07:50:24.248Z,11.00
2019-02-25T07:51:24.197Z,11.40
2019-02-25T07:52:24.155Z,9.80
2019-02-25T07:53:24.084Z,9.90
2019-02-25T07:54:24.023Z,9.60
2019-02-25T07:55:23.975Z,10.50
2019-02-25T07:56:23.925Z,8.30
2019-02-25T07:57:23.910Z,8.50
2019-02-25T07:58:23.826Z,8.80
2019-02-25T07:59:23.751Z,9.70
2019-02-25T08:00:23.691Z,8.90
2019-02-25T08:01:23.633Z,8.20
2019-02-25T08:02:23.576Z,9.70
2019-02-25T08:03:23.550Z,9.30
2019-02-25T08:04:23.466Z,9.00
2019-02-25T08:05:23.421Z,9.00
2019-02-25T08:06:23.360Z,9.40
2019-02-25T08:07:23.303Z,10.80
2019-02-25T08:08:23.272Z,10.10
2019-02-25T08:09:23.199Z,9.90
2019-02-25T08:10:23.160Z,8.60
2019-02-25T08:11:23.098Z,8.90
2019-02-25T08:12:23.024Z,9.90
2019-02-25T08:13:22.990Z,9.20
2019-02-25T08:14:22.922Z,8.80
2019-02-25T08:15:22.861Z,8.70
2019-02-25T08:16:22.808Z,8.20
2019-02-25T08:17:22.752Z,9.80
2019-02-25T08:18:22.724Z,8.90
2019-02-25T08:19:22.668Z,8.30
2019-02-25T08:20:22.595Z,7.30
2019-02-25T08:21:22.542Z,7.50
2019-02-25T08:22:23.001Z,6.50
2019-02-25T08:23:22.445Z,6.70
2019-02-25T08:24:30.401Z,7.10
2019-02-25T08:25:22.311Z,7.60
2019-02-25T08:26:22.255Z,7.30
2019-02-25T08:27:22.232Z,7.50
2019-02-25T08:28:22.181Z,7.00
2019-02-25T08:29:22.096Z,6.90
2019-02-25T08:30:22.052Z,7.60
2019-02-25T08:31:22.012Z,6.50
2019-02-25T08:32:21.942Z,7.00
2019-02-25T08:33:21.921Z,6.00
2019-02-25T08:34:21.850Z,5.40
2019-02-25T08:35:21.765Z,6.10
2019-02-25T08:36:21.761Z,6.60
2019-02-25T08:37:21.672Z,5.90
2019-02-25T08:38:21.657Z,5.70
2019-02-25T08:39:21.558Z,5.80
2019-02-25T08:40:21.522Z,6.60
2019-02-25T08:41:21.464Z,6.90
2019-02-25T08:42:21.400Z,7.40
2019-02-25T08:43:21.367Z,6.70
2019-02-25T08:44:21.325Z,7.20
2019-02-25T08:45:22.835Z,6.50
2019-02-25T08:46:21.174Z,6.30
2019-02-25T08:47:21.135Z,5.90
2019-02-25T08:48:21.083Z,6.00
2019-02-25T08:49:21.199Z,6.60
2019-02-25T08:50:21.029Z,5.90
2019-02-25T08:51:20.935Z,6.00
2019-02-25T08:52:20.938Z,7.20
2019-02-25T08:53:20.815Z,5.70
2019-02-25T08:54:20.804Z,6.50
2019-02-25T08:55:20.712Z,5.00
2019-02-25T08:56:20.644Z,5.80
2019-02-25T08:57:20.597Z,5.20
2019-02-25T08:58:20.538Z,7.10
2019-02-25T08:59:20.541Z,6.40
2019-02-25T09:00:20.509Z,5.60
2019-02-25T09:01:20.381Z,6.80
2019-02-25T09:02:20.332Z,6.60
2019-02-25T09:03:20.290Z,6.30
2019-02-25T09:04:20.249Z,7.70
2019-02-25T09:05:20.173Z,6.70
2019-02-25T09:06:20.114Z,7.00
2019-02-25T09:07:20.064Z,5.40
2019-02-25T09:08:20.015Z,5.60
2019-02-25T09:09:19.986Z,6.50
2019-02-25T09:10:19.905Z,5.70
2019-02-25T09:11:19.867Z,7.20
2019-02-25T09:12:19.794Z,5.80
2019-02-25T09:13:19.747Z,5.70
2019-02-25T09:14:19.726Z,6.40
2019-02-25T09:15:19.642Z,6.40
2019-02-25T09:16:19.585Z,6.20
2019-02-25T09:17:19.546Z,5.30
2019-02-25T09:18:19.482Z,5.60
2019-02-25T09:19:19.459Z,4.80
2019-02-25T09:20:19.379Z,5.00
2019-02-25T09:21:19.337Z,5.60
2019-02-25T09:22:19.275Z,5.20
2019-02-25T09:23:19.222Z,6.30
2019-02-25T09:24:19.235Z,6.10
2019-02-25T09:25:19.135Z,6.70
2019-02-25T09:26:19.074Z,6.50
2019-02-25T09:27:19.013Z,6.30
2019-02-25T09:28:18.969Z,5.40
2019-02-25T09:29:18.913Z,6.90
2019-02-25T09:30:18.886Z,5.00
2019-02-25T09:31:18.810Z,6.50
2019-02-25T09:32:19.137Z,6.50
2019-02-25T09:33:18.707Z,6.50
2019-02-25T09:34:18.645Z,5.00
2019-02-25T09:35:18.631Z,4.60
2019-02-25T09:36:18.541Z,5.40
2019-02-25T09:37:18.498Z,5.40
2019-02-25T09:38:18.443Z,6.70
2019-02-25T09:39:18.395Z,7.10
2019-02-25T09:40:18.377Z,5.30
2019-02-25T09:41:18.298Z,5.20
2019-02-25T09:42:18.232Z,4.90
2019-02-25T09:43:18.185Z,4.90
2019-02-25T09:44:18.124Z,5.00
2019-02-25T09:45:18.107Z,5.40
2019-02-25T09:46:18.024Z,5.40
2019-02-25T09:47:17.974Z,4.40
2019-02-25T09:48:17.925Z,4.80
2019-02-25T09:49:17.870Z,5.10
2019-02-25T09:50:17.859Z,5.50
2019-02-25T09:51:17.772Z,4.90
2019-02-25T09:52:17.723Z,4.30
2019-02-25T09:53:17.676Z,5.90
2019-02-25T09:54:17.622Z,4.90
2019-02-25T09:55:17.588Z,5.70
2019-02-25T09:56:17.514Z,5.60
2019-02-25T09:57:17.460Z,4.90
2019-02-25T09:58:17.416Z,5.30
2019-02-25T09:59:17.377Z,5.70
2019-02-25T10:00:17.340Z,4.40
2019-02-25T10:01:17.260Z,4.80
2019-02-25T10:02:17.206Z,4.70
2019-02-25T10:03:17.151Z,4.90
2019-02-25T10:04:17.107Z,4.80
2019-02-25T10:05:17.094Z,5.00
2019-02-25T10:06:17.007Z,4.90
2019-02-25T10:07:16.947Z,4.30
2019-02-25T10:08:16.896Z,4.10
2019-02-25T10:09:16.846Z,5.10
2019-02-25T10:10:16.893Z,5.00
2019-02-25T10:11:16.743Z,4.50
2019-02-25T10:12:16.695Z,6.20
2019-02-25T10:13:16.643Z,5.10
2019-02-25T10:14:16.600Z,5.00
2019-02-25T10:15:16.599Z,4.90
2019-02-25T10:16:16.493Z,5.00
2019-02-25T10:17:23.444Z,5.00
2019-02-25T10:18:16.384Z,5.90
2019-02-25T10:19:16.339Z,5.00
2019-02-25T10:20:16.283Z,5.20
2019-02-25T10:21:16.260Z,4.90
2019-02-25T10:22:16.190Z,5.20
2019-02-25T10:23:16.133Z,4.90
2019-02-25T10:24:16.085Z,5.90
2019-02-25T10:25:16.057Z,5.70
2019-02-25T10:26:16.013Z,5.60
2019-02-25T10:27:15.930Z,6.10
2019-02-25T10:28:15.884Z,5.30
2019-02-25T10:29:15.828Z,5.10
2019-02-25T10:30:15.793Z,5.10
2019-02-25T10:31:17.350Z,5.40
2019-02-25T10:32:15.683Z,6.30
2019-02-25T10:33:15.641Z,4.40
2019-02-25T10:34:15.585Z,4.60
2019-02-25T10:35:15.522Z,5.40
2019-02-25T10:36:15.505Z,4.40
2019-02-25T10:37:16.875Z,5.10
2019-02-25T10:38:15.376Z,4.20
2019-02-25T10:39:16.170Z,4.30
2019-02-25T10:40:15.987Z,4.60
2019-02-25T10:41:17.166Z,4.80
2019-02-25T10:42:15.207Z,4.80
2019-02-25T10:43:15.122Z,4.60
2019-02-25T10:44:15.069Z,5.20
2019-02-25T10:45:15.021Z,4.00
2019-02-25T10:46:15.915Z,5.60
2019-02-25T10:47:15.757Z,4.30
2019-02-25T10:48:15.600Z,5.80
2019-02-25T10:49:14.817Z,5.00
2019-02-25T10:50:14.762Z,4.70
2019-02-25T10:51:14.745Z,5.80
2019-02-25T10:52:15.148Z,5.90
2019-02-25T10:53:15.706Z,6.40
2019-02-25T10:54:16.460Z,4.60
2019-02-25T10:55:14.532Z,5.00
2019-02-25T10:56:16.660Z,5.30
2019-02-25T10:57:14.415Z,5.70
2019-02-25T10:58:14.364Z,5.20
2019-02-25T10:59:14.319Z,6.10
2019-02-25T11:00:14.273Z,4.30
2019-02-25T11:01:17.495Z,4.50
2019-02-25T11:02:15.395Z,4.80
2019-02-25T11:03:15.302Z,4.10
2019-02-25T11:04:15.425Z,4.60
2019-02-25T11:05:14.015Z,4.70
2019-02-25T11:06:14.026Z,4.20
2019-02-25T11:07:13.917Z,5.90
2019-02-25T11:08:13.970Z,4.20
2019-02-25T11:09:15.653Z,3.90
2019-02-25T11:10:14.529Z,5.50
2019-02-25T11:11:13.742Z,4.30
2019-02-25T11:12:13.658Z,6.00
2019-02-25T11:13:13.608Z,5.60
2019-02-25T11:14:13.568Z,4.50
2019-02-25T11:15:14.230Z,5.50
2019-02-25T11:16:14.080Z,5.80
2019-02-25T11:17:13.876Z,6.30
2019-02-25T11:18:13.365Z,5.00
2019-02-25T11:19:13.309Z,5.10
2019-02-25T11:20:13.262Z,5.40
2019-02-25T11:21:13.236Z,5.00
2019-02-25T11:22:14.623Z,6.40
2019-02-25T11:23:15.401Z,5.40
2019-02-25T11:24:14.461Z,5.30
2019-02-25T11:25:13.010Z,5.40
2019-02-25T11:26:12.983Z,4.60
2019-02-25T11:27:12.908Z,5.40
2019-02-25T11:28:24.265Z,4.50
2019-02-25T11:29:13.794Z,5.20
2019-02-25T11:30:14.371Z,5.50
2019-02-25T11:31:12.747Z,5.10
2019-02-25T11:32:12.660Z,5.20
2019-02-25T11:33:12.620Z,5.00
2019-02-25T11:34:12.563Z,4.70
2019-02-25T11:35:13.037Z,4.60
2019-02-25T11:36:13.349Z,5.00
2019-02-25T11:37:14.395Z,6.10
2019-02-25T11:38:12.371Z,4.90
2019-02-25T11:39:12.314Z,4.90
2019-02-25T11:40:12.260Z,5.60
2019-02-25T11:41:12.241Z,5.30
2019-02-25T11:42:13.552Z,4.90
2019-02-25T11:43:13.303Z,5.30
2019-02-25T11:44:12.062Z,5.00
2019-02-25T11:45:12.028Z,6.00
2019-02-25T11:46:11.997Z,5.40
2019-02-25T11:47:11.926Z,5.70
2019-02-25T11:48:11.860Z,5.40
2019-02-25T11:49:11.809Z,5.90
2019-02-25T11:50:11.759Z,6.20
2019-02-25T11:51:11.727Z,5.50
2019-02-25T11:52:11.699Z,5.50
2019-02-25T11:53:11.616Z,4.90
2019-02-25T11:54:11.565Z,4.90
2019-02-25T11:55:11.513Z,6.40
2019-02-25T11:56:11.462Z,6.20
2019-02-25T11:57:11.442Z,5.80
2019-02-25T11:58:11.388Z,6.00
2019-02-25T11:59:11.312Z,4.90
2019-02-25T12:00:11.278Z,5.40
2019-02-25T12:01:11.222Z,5.00
2019-02-25T12:02:11.191Z,5.50
2019-02-25T12:03:11.113Z,5.00
2019-02-25T12:04:11.068Z,4.70
2019-02-25T12:05:11.048Z,5.80
2019-02-25T12:06:10.981Z,5.90
2019-02-25T12:07:10.937Z,5.20
2019-02-25T12:08:10.869Z,5.00
2019-02-25T12:09:10.845Z,4.70
2019-02-25T12:10:10.775Z,5.70
2019-02-25T12:11:10.721Z,5.60
2019-02-25T12:12:10.708Z,5.80
2019-02-25T12:13:10.620Z,5.40
2019-02-25T12:14:10.577Z,7.50
2019-02-25T12:15:10.530Z,5.40
2019-02-25T12:16:10.489Z,6.50
2019-02-25T12:17:10.449Z,5.90
2019-02-25T12:18:10.369Z,6.00
2019-02-25T12:19:17.783Z,5.80
2019-02-25T12:20:10.269Z,5.80
2019-02-25T12:21:10.230Z,5.70
2019-02-25T12:22:10.198Z,5.50
2019-02-25T12:23:10.119Z,6.40
2019-02-25T12:24:10.072Z,5.90
2019-02-25T12:25:10.020Z,6.10
2019-02-25T12:26:09.970Z,5.80
2019-02-25T12:27:11.800Z,7.10
2019-02-25T12:28:09.870Z,6.90
2019-02-25T12:29:11.035Z,6.20
2019-02-25T12:30:09.774Z,5.70
2019-02-25T12:31:09.719Z,6.20
2019-02-25T12:32:09.697Z,6.40
2019-02-25T12:33:09.631Z,6.20
2019-02-25T12:34:09.585Z,6.30
2019-02-25T12:35:09.522Z,6.60
2019-02-25T12:36:09.479Z,5.90
2019-02-25T12:37:09.464Z,8.10
2019-02-25T12:38:09.400Z,6.30
2019-02-25T12:39:09.349Z,6.40
2019-02-25T12:40:09.292Z,6.10
2019-02-25T12:41:09.258Z,7.00
2019-02-25T12:42:09.199Z,8.20
2019-02-25T12:43:09.157Z,7.30
2019-02-25T12:44:09.085Z,7.70
2019-02-25T12:45:09.043Z,8.10
2019-02-25T12:46:08.981Z,8.20
2019-02-25T12:47:08.945Z,8.00
2019-02-25T12:48:08.909Z,7.70
2019-02-25T12:49:08.839Z,7.30
2019-02-25T12:50:08.795Z,8.60
2019-02-25T12:51:08.746Z,8.10
2019-02-25T12:52:08.697Z,7.70
2019-02-25T12:53:08.657Z,7.00
2019-02-25T12:54:08.586Z,7.80
2019-02-25T12:55:08.569Z,8.50
2019-02-25T12:56:08.490Z,8.30
2019-02-25T12:57:08.436Z,7.50
2019-02-25T12:58:08.418Z,7.90
2019-02-25T12:59:08.353Z,7.70
2019-02-25T13:00:08.309Z,7.90
2019-02-25T13:01:08.257Z,7.80
2019-02-25T13:02:08.192Z,6.90
2019-02-25T13:03:08.171Z,7.90
2019-02-25T13:04:08.096Z,7.00
2019-02-25T13:05:08.039Z,8.20
2019-02-25T13:06:08.003Z,7.30
2019-02-25T13:07:07.957Z,7.80
2019-02-25T13:08:07.942Z,6.90
2019-02-25T13:09:07.847Z,8.00
2019-02-25T13:10:07.812Z,8.60
2019-02-25T13:11:07.751Z,7.80